Nearby METAR Reports

 

EGQL - Leuchars Raf, United Kingdom
Distance from station: SW 17km
Updated: 01/03/2021 10:50
Clear
Clear
 Wind from SSW
Wind: SSW 1 mph , 2 km/h
Temperature: 9°C
Dew Point: 5°C
Humidity: 76%
Barometer: 1034 hPa
Summary: Clear
Visibility: greater than 7 miles , 10 km
2021/03/01 09:50 EGQL 010950Z 20001KT CAVOK 09/05 Q1034 BLU
EGPN - Dundee/Riverside, United Kingdom
Distance from station: WSW 20km
Updated: 28/02/2021 16:50
NOT Current
Partly cloudy
Partly cloudy
 Wind from W
Wind: W 6 mph , 9 km/h
Temperature: 8°C
Wind Chill: 6°C
Dew Point: 6°C
Humidity: 87%
Barometer: 1035 hPa
Clouds: Partly cloudy
Visibility: 6 miles , 10 km
Cloud details: Few Clouds 762 m
Partly cloudy 1219 m
2021/02/28 15:50 EGPN 281550Z 26005KT 9999 FEW025 SCT040 08/06 Q1035
 
EGPH - Edinburgh Airpor, United Kingdom
Distance from station: SSW 74km
Updated: 01/03/2021 10:50
Clear
Clear
 Wind from varies
Wind: varies 1 mph , 2 km/h
Temperature: 6°C
Dew Point: 3°C
Humidity: 81%
Barometer: 1034 hPa
Summary: Clear
Visibility: greater than 7 miles , 10 km
2021/03/01 09:50 EGPH 010950Z VRB01KT CAVOK 06/03 Q1034
EGPD - Aberdeen/Dyce, United Kingdom
Distance from station: NNE 82km
Updated: 01/03/2021 10:50
Overcast
Overcast
 Wind from varies
Wind: varies 2 mph , 4 km/h
Temperature: 6°C
Dew Point: 3°C
Humidity: 81%
Barometer: 1035 hPa
Clouds: Overcast
Visibility: 6 miles , 10 km
Cloud details: Overcast 1158 m
2021/03/01 09:50 EGPD 010950Z AUTO VRB02KT 9999 OVC038 06/03 Q1035